createdAt,value
2022-10-05T00:01:32.621Z,98046.72
2022-10-05T00:03:42.401Z,98046.91
2022-10-05T00:05:51.399Z,98047.34
2022-10-05T00:08:06.197Z,98040.66
2022-10-05T00:10:20.134Z,98047.94
2022-10-05T00:12:34.351Z,98042.13
2022-10-05T00:14:42.892Z,98045.03
2022-10-05T00:16:51.508Z,98044.00
2022-10-05T00:19:03.266Z,98051.94
2022-10-05T00:21:31.594Z,98050.00
2022-10-05T00:23:44.533Z,98051.69
2022-10-05T00:25:52.981Z,98046.56
2022-10-05T00:28:06.927Z,98044.69
2022-10-05T00:30:18.316Z,98040.66
2022-10-05T00:32:26.889Z,98042.72
2022-10-05T00:34:37.630Z,98042.47
2022-10-05T00:36:46.855Z,98033.47
2022-10-05T00:38:58.493Z,98036.28
2022-10-05T00:41:12.552Z,98029.34
2022-10-05T00:43:58.315Z,98035.56
2022-10-05T00:46:12.258Z,98038.22
2022-10-05T00:48:28.475Z,98026.59
2022-10-05T00:50:52.039Z,98030.03
2022-10-05T00:53:09.282Z,98030.94
2022-10-05T00:55:30.880Z,98017.84
2022-10-05T00:57:50.002Z,98029.91
2022-10-05T01:00:08.790Z,98021.16
2022-10-05T01:02:21.339Z,98030.59
2022-10-05T01:04:38.474Z,98019.47
2022-10-05T01:07:00.517Z,98027.66
2022-10-05T01:09:19.054Z,98015.75
2022-10-05T01:11:33.603Z,98020.50
2022-10-05T01:13:50.451Z,98014.59
2022-10-05T01:16:09.664Z,98018.41
2022-10-05T01:18:25.189Z,98024.66
2022-10-05T01:20:53.391Z,98020.38
2022-10-05T01:23:48.795Z,98008.28
2022-10-05T01:26:10.841Z,98011.44
2022-10-05T01:28:27.277Z,98010.50
2022-10-05T01:30:45.862Z,98007.84
2022-10-05T01:33:05.066Z,98001.75
2022-10-05T01:35:26.671Z,97993.78
2022-10-05T01:37:46.518Z,97993.78
2022-10-05T01:40:05.931Z,97992.81
2022-10-05T01:42:22.592Z,97991.00
2022-10-05T01:44:41.001Z,97995.22
2022-10-05T01:46:55.819Z,97992.66
2022-10-05T01:49:18.851Z,97999.09
2022-10-05T01:51:37.931Z,97994.59
2022-10-05T01:54:01.070Z,97996.53
2022-10-05T01:56:18.916Z,97995.91
2022-10-05T01:58:37.061Z,97993.19
2022-10-05T02:00:56.405Z,97994.91
2022-10-05T02:03:12.201Z,97992.66
2022-10-05T02:05:25.226Z,97991.97
2022-10-05T02:07:42.043Z,97992.41
2022-10-05T02:09:56.890Z,97991.56
2022-10-05T02:12:11.343Z,97983.94
2022-10-05T02:14:24.626Z,97983.00
2022-10-05T02:16:42.100Z,97978.47
2022-10-05T02:18:55.015Z,97974.97
2022-10-05T02:21:04.786Z,97986.41
2022-10-05T02:23:16.622Z,97988.75
2022-10-05T02:25:29.439Z,97984.63
2022-10-05T02:27:49.430Z,97987.44
2022-10-05T02:30:02.551Z,97980.66
2022-10-05T02:32:23.035Z,97976.03
2022-10-05T02:34:33.238Z,97969.81
2022-10-05T02:36:48.766Z,97974.16
2022-10-05T02:39:07.218Z,97965.47
2022-10-05T02:41:24.562Z,97968.25
2022-10-05T02:43:43.474Z,97965.59
2022-10-05T02:45:58.818Z,97960.31
2022-10-05T02:48:18.009Z,97955.00
2022-10-05T02:50:33.251Z,97952.53
2022-10-05T02:52:49.472Z,97948.19
2022-10-05T02:55:05.495Z,97959.22
2022-10-05T02:57:22.330Z,97965.22
2022-10-05T02:59:36.822Z,97964.53
2022-10-05T03:01:53.433Z,97969.03
2022-10-05T03:04:14.361Z,97976.13
2022-10-05T03:06:28.270Z,97977.75
2022-10-05T03:08:47.818Z,97977.44
2022-10-05T03:11:03.025Z,97973.72
2022-10-05T03:13:16.640Z,97975.44
2022-10-05T03:15:58.405Z,97987.50
2022-10-05T03:18:16.330Z,97982.66
2022-10-05T03:20:38.362Z,97982.34
2022-10-05T03:22:52.925Z,97980.50
2022-10-05T03:25:29.764Z,97974.34
2022-10-05T03:27:47.698Z,97979.16
2022-10-05T03:30:04.520Z,97971.84
2022-10-05T03:32:28.364Z,97980.72
2022-10-05T03:34:41.024Z,97969.44
2022-10-05T03:36:59.249Z,97966.69
2022-10-05T03:39:16.200Z,97962.63
2022-10-05T03:41:33.184Z,97962.69
2022-10-05T03:44:08.881Z,97970.81
2022-10-05T03:46:23.178Z,97966.97
2022-10-05T03:48:36.465Z,97965.28
2022-10-05T03:50:53.083Z,97964.41
2022-10-05T03:53:08.889Z,97957.28
2022-10-05T03:55:23.601Z,97962.91
2022-10-05T03:57:39.668Z,97958.38
2022-10-05T03:59:58.248Z,97959.88
2022-10-05T04:02:09.872Z,97965.78
2022-10-05T04:04:25.822Z,97969.38
2022-10-05T04:06:37.781Z,97975.03
2022-10-05T04:08:54.903Z,97965.44
2022-10-05T04:11:08.907Z,97965.47
2022-10-05T04:13:24.775Z,97960.78
2022-10-05T04:15:37.717Z,97956.78
2022-10-05T04:17:49.324Z,97954.16
2022-10-05T04:20:03.128Z,97966.94
2022-10-05T04:22:18.761Z,97963.50
2022-10-05T04:24:38.536Z,97952.84
2022-10-05T04:26:53.588Z,97951.44
2022-10-05T04:29:09.269Z,97946.06
2022-10-05T04:31:25.841Z,97950.59
2022-10-05T04:33:34.836Z,97943.38
2022-10-05T04:36:05.733Z,97947.50
2022-10-05T04:38:28.660Z,97944.66
2022-10-05T04:40:56.139Z,97951.16
2022-10-05T04:43:12.502Z,97949.06
2022-10-05T04:45:32.693Z,97942.59
2022-10-05T04:48:11.880Z,97948.00
2022-10-05T04:50:32.001Z,97948.06
2022-10-05T04:52:58.428Z,97952.16
2022-10-05T04:55:25.023Z,97955.06
2022-10-05T04:57:44.068Z,97962.53
2022-10-05T05:00:06.985Z,97958.97
2022-10-05T05:02:28.639Z,97961.75
2022-10-05T05:04:55.072Z,97956.59
2022-10-05T05:07:19.447Z,97959.53
2022-10-05T05:09:51.360Z,97955.09
2022-10-05T05:12:11.001Z,97962.47
2022-10-05T05:14:44.974Z,97960.09
2022-10-05T05:17:01.805Z,97965.59
2022-10-05T05:19:21.832Z,97969.03
2022-10-05T05:21:41.689Z,97968.50
2022-10-05T05:23:59.878Z,97967.38
2022-10-05T05:26:15.971Z,97973.56
2022-10-05T05:28:33.204Z,97971.94
2022-10-05T05:30:48.824Z,97974.31
2022-10-05T05:33:13.402Z,97974.16
2022-10-05T05:35:47.411Z,97968.75
2022-10-05T05:38:04.920Z,97975.75
2022-10-05T05:40:20.667Z,97978.50
2022-10-05T05:42:41.108Z,97977.59
2022-10-05T05:44:55.509Z,97975.28
2022-10-05T05:47:16.929Z,97975.72
2022-10-05T05:49:30.585Z,97979.53
2022-10-05T05:51:42.579Z,97975.44
2022-10-05T05:53:56.128Z,97981.19
2022-10-05T05:56:11.451Z,97993.66
2022-10-05T05:58:25.885Z,97986.47
2022-10-05T06:00:40.824Z,97987.53
2022-10-05T06:02:57.368Z,97993.28
2022-10-05T06:05:12.384Z,97992.44
2022-10-05T06:07:30.339Z,98001.22
2022-10-05T06:09:45.180Z,98010.09
2022-10-05T06:12:07.725Z,98005.31
2022-10-05T06:14:21.038Z,98020.38
2022-10-05T06:16:38.128Z,98015.75
2022-10-05T06:18:54.710Z,98010.97
2022-10-05T06:21:06.371Z,98017.41
2022-10-05T06:23:18.665Z,98023.66
2022-10-05T06:25:58.600Z,98041.03
2022-10-05T06:28:13.098Z,98032.53
2022-10-05T06:30:26.920Z,98032.03
2022-10-05T06:32:41.025Z,98032.47
2022-10-05T06:35:03.786Z,98033.72
2022-10-05T06:37:21.336Z,98037.75
2022-10-05T06:40:00.178Z,98046.31
2022-10-05T06:42:27.493Z,98056.31
2022-10-05T06:45:06.511Z,98054.59
2022-10-05T06:47:41.134Z,98053.53
2022-10-05T06:50:16.284Z,98050.84
2022-10-05T06:52:51.095Z,98051.22
2022-10-05T06:55:17.226Z,98064.31
2022-10-05T06:57:44.793Z,98070.72
2022-10-05T07:00:01.857Z,98085.91
2022-10-05T07:02:18.481Z,98079.72
2022-10-05T07:04:44.923Z,98086.25
2022-10-05T07:07:03.508Z,98103.28
2022-10-05T07:09:30.338Z,98125.94
2022-10-05T07:11:56.367Z,98144.34
2022-10-05T07:14:24.240Z,98153.56
2022-10-05T07:16:42.855Z,98157.41
2022-10-05T07:19:08.453Z,98170.53
2022-10-05T07:21:29.563Z,98170.19
2022-10-05T07:23:54.502Z,98166.59
2022-10-05T07:26:09.140Z,98179.16
2022-10-05T07:28:23.984Z,98176.59
2022-10-05T07:30:42.434Z,98182.16
2022-10-05T07:33:00.425Z,98177.41
2022-10-05T07:35:32.551Z,98176.25
2022-10-05T07:37:59.235Z,98181.06
2022-10-05T07:40:22.455Z,98182.25
2022-10-05T07:42:50.533Z,98187.19
2022-10-05T07:45:09.796Z,98190.31
2022-10-05T07:47:24.452Z,98189.75
2022-10-05T07:49:44.122Z,98193.47
2022-10-05T07:51:57.621Z,98205.78
2022-10-05T07:54:19.654Z,98209.53
2022-10-05T07:56:38.820Z,98200.59
2022-10-05T07:58:52.084Z,98211.34
2022-10-05T08:01:13.071Z,98204.28
2022-10-05T08:03:32.780Z,98207.41
2022-10-05T08:05:47.893Z,98198.75
2022-10-05T08:08:03.567Z,98197.09
2022-10-05T08:10:25.945Z,98196.59
2022-10-05T08:12:46.233Z,98191.94
2022-10-05T08:15:00.842Z,98187.41
2022-10-05T08:17:16.165Z,98197.44
2022-10-05T08:19:32.582Z,98200.00
2022-10-05T08:21:46.340Z,98199.56
2022-10-05T08:23:58.527Z,98201.84
2022-10-05T08:26:18.567Z,98199.44
2022-10-05T08:28:34.780Z,98200.13
2022-10-05T08:30:57.036Z,98194.41
2022-10-05T08:33:10.715Z,98198.56
2022-10-05T08:35:29.908Z,98203.81
2022-10-05T08:37:43.564Z,98203.81
2022-10-05T08:39:58.785Z,98198.69
2022-10-05T08:42:42.802Z,98199.53
2022-10-05T08:45:10.290Z,98193.19
2022-10-05T08:47:48.368Z,98186.91
2022-10-05T08:50:22.377Z,98188.88
2022-10-05T08:52:32.380Z,98185.53
2022-10-05T08:54:50.071Z,98190.19
2022-10-05T08:57:16.938Z,98191.75
2022-10-05T09:00:06.367Z,98192.13
2022-10-05T09:02:34.772Z,98179.75
2022-10-05T09:04:59.802Z,98186.00
2022-10-05T09:07:45.851Z,98193.50
2022-10-05T09:10:23.344Z,98189.75
2022-10-05T09:12:50.283Z,98182.13
2022-10-05T09:15:25.985Z,98193.66
2022-10-05T09:18:06.168Z,98188.56
2022-10-05T09:20:25.650Z,98204.53
2022-10-05T09:22:58.034Z,98230.09
2022-10-05T09:25:21.199Z,98250.53
2022-10-05T09:27:39.814Z,98270.13
2022-10-05T09:30:10.391Z,98259.59
2022-10-05T09:32:51.881Z,98263.34
2022-10-05T09:35:18.922Z,98264.59
2022-10-05T09:37:58.945Z,98251.34
2022-10-05T09:40:36.854Z,98273.91
2022-10-05T09:43:19.441Z,98249.53
2022-10-05T09:45:53.421Z,98236.88
2022-10-05T09:48:34.085Z,98251.25
2022-10-05T09:51:34.721Z,98266.16
2022-10-05T09:54:18.306Z,98251.09
2022-10-05T09:57:07.694Z,98253.69
2022-10-05T09:59:39.031Z,98231.75
2022-10-05T10:02:01.574Z,98223.81
2022-10-05T10:04:30.793Z,98232.97
2022-10-05T10:07:32.894Z,98224.00
2022-10-05T10:09:55.428Z,98214.06
2022-10-05T10:12:22.046Z,98214.78
2022-10-05T10:15:11.787Z,98198.91
2022-10-05T10:17:36.697Z,98210.13
2022-10-05T10:20:16.901Z,98215.28
2022-10-05T10:23:09.350Z,98219.28
2022-10-05T10:26:05.510Z,98195.28
2022-10-05T10:28:37.815Z,98192.75
2022-10-05T10:31:20.036Z,98182.88
2022-10-05T10:33:57.685Z,98166.78
2022-10-05T10:36:08.258Z,98161.06
2022-10-05T10:38:35.498Z,98150.50
2022-10-05T10:41:01.427Z,98151.47
2022-10-05T10:43:35.761Z,98150.09
2022-10-05T10:45:56.952Z,98134.84
2022-10-05T10:48:08.046Z,98138.81
2022-10-05T10:50:47.327Z,98128.56
2022-10-05T10:53:10.661Z,98123.34
2022-10-05T10:55:40.798Z,98124.09
2022-10-05T10:58:15.732Z,98111.16
2022-10-05T11:00:54.516Z,98110.44
2022-10-05T11:03:43.757Z,98106.59
2022-10-05T11:06:17.193Z,98102.16
2022-10-05T11:08:53.444Z,98096.81
2022-10-05T11:11:22.629Z,98097.63
2022-10-05T11:13:42.468Z,98098.81
2022-10-05T11:16:23.650Z,98093.63
2022-10-05T11:18:46.898Z,98086.63
2022-10-05T11:21:20.311Z,98089.94
2022-10-05T11:23:48.073Z,98085.44
2022-10-05T11:26:14.326Z,98076.31
2022-10-05T11:28:46.370Z,98072.38
2022-10-05T11:31:20.188Z,98071.31
2022-10-05T11:34:13.352Z,98064.66
2022-10-05T11:37:06.055Z,98066.84
2022-10-05T11:39:39.274Z,98071.94
2022-10-05T11:42:22.678Z,98066.75
2022-10-05T11:45:16.689Z,98066.94
2022-10-05T11:47:29.242Z,98075.22
2022-10-05T11:49:44.835Z,98062.00
2022-10-05T11:52:04.889Z,98061.59
2022-10-05T11:54:46.609Z,98060.34
2022-10-05T11:57:09.215Z,98063.69
2022-10-05T11:59:23.548Z,98062.72
2022-10-05T12:01:43.033Z,98057.66
2022-10-05T12:04:00.956Z,98048.88
2022-10-05T12:06:29.821Z,98062.22
2022-10-05T12:08:49.852Z,98054.72
2022-10-05T12:11:18.513Z,98051.03
2022-10-05T12:13:40.289Z,98049.38
2022-10-05T12:15:55.606Z,98049.25
2022-10-05T12:18:14.275Z,98050.47
2022-10-05T12:20:27.604Z,98050.94
2022-10-05T12:22:40.646Z,98041.47
2022-10-05T12:25:05.457Z,98048.94
2022-10-05T12:27:20.092Z,98037.44
2022-10-05T12:29:34.014Z,98047.25
2022-10-05T12:31:49.974Z,98046.94
2022-10-05T12:34:11.497Z,98030.66
2022-10-05T12:36:28.553Z,98036.56
2022-10-05T12:38:48.899Z,98036.25
2022-10-05T12:41:05.985Z,98041.31
2022-10-05T12:43:22.856Z,98027.56
2022-10-05T12:45:43.641Z,98037.09
2022-10-05T12:48:10.199Z,98041.50
2022-10-05T12:50:27.558Z,98039.97
2022-10-05T12:52:51.667Z,98029.78
2022-10-05T12:55:07.888Z,98042.78
2022-10-05T12:57:26.549Z,98040.59
2022-10-05T12:59:41.911Z,98025.38
2022-10-05T13:01:57.027Z,98029.09
2022-10-05T13:04:18.067Z,98032.28
2022-10-05T13:06:37.933Z,98033.16
2022-10-05T13:08:54.418Z,98039.94
2022-10-05T13:11:15.160Z,98033.34
2022-10-05T13:13:40.509Z,98024.00
2022-10-05T13:15:53.937Z,98034.97
2022-10-05T13:18:16.216Z,98030.41
2022-10-05T13:20:32.885Z,98040.25
2022-10-05T13:22:46.780Z,98054.34
2022-10-05T13:25:07.766Z,98056.56
2022-10-05T13:27:22.014Z,98080.81
2022-10-05T13:29:36.672Z,98077.41
2022-10-05T13:31:49.870Z,98080.28
2022-10-05T13:34:10.458Z,98085.75
2022-10-05T13:36:32.473Z,98086.94
2022-10-05T13:38:56.357Z,98086.06
2022-10-05T13:41:14.558Z,98083.53
2022-10-05T13:43:30.817Z,98078.78
2022-10-05T13:45:47.031Z,98082.81
2022-10-05T13:48:10.534Z,98082.84
2022-10-05T13:50:26.591Z,98078.59
2022-10-05T13:52:47.265Z,98075.41
2022-10-05T13:55:05.112Z,98082.81
2022-10-05T13:57:27.062Z,98080.97
2022-10-05T13:59:43.505Z,98076.56
2022-10-05T14:02:00.310Z,98079.78
2022-10-05T14:04:17.671Z,98075.41
2022-10-05T14:06:30.770Z,98075.03
2022-10-05T14:08:51.194Z,98069.47
2022-10-05T14:11:26.640Z,98072.00
2022-10-05T14:13:37.715Z,98062.16
2022-10-05T14:16:04.966Z,98062.19
2022-10-05T14:18:27.479Z,98051.00
2022-10-05T14:20:35.863Z,98065.91
2022-10-05T14:22:49.906Z,98044.34
2022-10-05T14:25:06.316Z,98051.44
2022-10-05T14:27:23.316Z,98053.66
2022-10-05T14:29:38.868Z,98053.47
2022-10-05T14:31:53.970Z,98052.97
2022-10-05T14:34:30.737Z,98059.22
2022-10-05T14:36:44.240Z,98052.97
2022-10-05T14:39:02.243Z,98052.47
2022-10-05T14:41:19.618Z,98051.59
2022-10-05T14:43:30.386Z,98049.22
2022-10-05T14:45:38.488Z,98037.19
2022-10-05T14:47:52.035Z,98031.41
2022-10-05T14:50:15.683Z,98045.44
2022-10-05T14:52:34.931Z,98036.34
2022-10-05T14:54:55.543Z,98044.59
2022-10-05T14:57:10.277Z,98040.38
2022-10-05T14:59:39.526Z,98039.84
2022-10-05T15:01:55.785Z,98039.38
2022-10-05T15:04:20.630Z,98039.44
2022-10-05T15:06:36.182Z,98043.00
2022-10-05T15:08:58.633Z,98034.34
2022-10-05T15:11:11.713Z,98040.28
2022-10-05T15:13:22.373Z,98035.72
2022-10-05T15:15:38.492Z,98031.44
2022-10-05T15:17:52.680Z,98037.84
2022-10-05T15:20:09.665Z,98038.78
2022-10-05T15:22:27.405Z,98041.97
2022-10-05T15:24:44.090Z,98038.66
2022-10-05T15:26:53.834Z,98038.28
2022-10-05T15:29:14.026Z,98038.69
2022-10-05T15:31:33.602Z,98038.81
2022-10-05T15:33:48.130Z,98035.56
2022-10-05T15:36:06.902Z,98034.31
2022-10-05T15:38:26.546Z,98028.91
2022-10-05T15:40:40.402Z,98036.50
2022-10-05T15:42:48.809Z,98027.97
2022-10-05T15:45:06.963Z,98033.44
2022-10-05T15:47:25.780Z,98042.59
2022-10-05T15:49:45.273Z,98038.47
2022-10-05T15:52:03.300Z,98041.81
2022-10-05T15:54:39.450Z,98035.94
2022-10-05T15:56:55.557Z,98035.34
2022-10-05T15:59:17.645Z,98038.78
2022-10-05T16:01:49.859Z,98028.53
2022-10-05T16:04:08.729Z,98036.56
2022-10-05T16:06:38.906Z,98031.16
2022-10-05T16:09:00.431Z,98034.34
2022-10-05T16:11:19.137Z,98036.59
2022-10-05T16:13:38.105Z,98030.72
2022-10-05T16:15:51.841Z,98024.22
2022-10-05T16:18:22.285Z,98038.06
2022-10-05T16:20:43.945Z,98031.47
2022-10-05T16:23:00.976Z,98033.63
2022-10-05T16:25:12.771Z,98038.09
2022-10-05T16:27:28.944Z,98041.41
2022-10-05T16:29:46.817Z,98030.72
2022-10-05T16:32:03.169Z,98033.25
2022-10-05T16:34:27.101Z,98042.03
2022-10-05T16:37:06.773Z,98046.25
2022-10-05T16:39:25.071Z,98044.91
2022-10-05T16:41:39.078Z,98036.88
2022-10-05T16:43:54.686Z,98039.19
2022-10-05T16:46:11.500Z,98041.47
2022-10-05T16:48:27.546Z,98040.78
2022-10-05T16:50:46.373Z,98039.44
2022-10-05T16:53:03.449Z,98046.66
2022-10-05T16:55:23.283Z,98043.41
2022-10-05T16:57:36.297Z,98045.25
2022-10-05T17:00:14.891Z,98041.44
2022-10-05T17:02:50.373Z,98045.38
2022-10-05T17:05:07.624Z,98047.06
2022-10-05T17:07:36.000Z,98049.31
2022-10-05T17:10:03.301Z,98044.19
2022-10-05T17:12:32.152Z,98056.09
2022-10-05T17:14:46.936Z,98051.25
2022-10-05T17:17:17.396Z,98053.09
2022-10-05T17:19:42.294Z,98057.78
2022-10-05T17:22:00.537Z,98053.94
2022-10-05T17:24:27.089Z,98058.84
2022-10-05T17:26:58.004Z,98058.25
2022-10-05T17:29:17.461Z,98059.22
2022-10-05T17:31:25.848Z,98070.22
2022-10-05T17:33:34.770Z,98060.16
2022-10-05T17:36:08.626Z,98066.78
2022-10-05T17:38:22.225Z,98068.03
2022-10-05T17:41:06.324Z,98072.91
2022-10-05T17:43:35.086Z,98071.91
2022-10-05T17:46:09.180Z,98071.63
2022-10-05T17:48:41.657Z,98072.81
2022-10-05T17:51:03.503Z,98067.88
2022-10-05T17:53:36.759Z,98063.19
2022-10-05T17:55:48.752Z,98067.13
2022-10-05T17:57:59.868Z,98072.25
2022-10-05T18:00:51.695Z,98074.94
2022-10-05T18:03:02.556Z,98082.16
2022-10-05T18:05:27.910Z,98074.41
2022-10-05T18:07:37.833Z,98086.69
2022-10-05T18:09:57.622Z,98080.72
2022-10-05T18:12:15.402Z,98082.03
2022-10-05T18:14:25.565Z,98084.84
2022-10-05T18:17:00.617Z,98088.50
2022-10-05T18:19:18.704Z,98089.69
2022-10-05T18:21:32.309Z,98094.13
2022-10-05T18:23:40.684Z,98099.44
2022-10-05T18:25:53.595Z,98099.84
2022-10-05T18:28:20.643Z,98110.56
2022-10-05T18:30:31.243Z,98113.25
2022-10-05T18:33:17.694Z,98116.88
2022-10-05T18:35:37.174Z,98130.38
2022-10-05T18:37:55.587Z,98123.75
2022-10-05T18:40:23.813Z,98122.94
2022-10-05T18:42:42.512Z,98127.97
2022-10-05T18:44:55.463Z,98135.19
2022-10-05T18:47:12.259Z,98134.00
2022-10-05T18:49:34.656Z,98127.69
2022-10-05T18:51:52.214Z,98131.09
2022-10-05T18:54:13.911Z,98119.50
2022-10-05T18:56:31.671Z,98122.22
2022-10-05T18:58:56.611Z,98130.50
2022-10-05T19:01:21.346Z,98129.53
2022-10-05T19:03:36.667Z,98129.44
2022-10-05T19:05:50.649Z,98133.81
2022-10-05T19:08:10.973Z,98136.03
2022-10-05T19:10:28.079Z,98140.03
2022-10-05T19:12:48.245Z,98151.00
2022-10-05T19:15:06.789Z,98143.22
2022-10-05T19:17:26.328Z,98150.38
2022-10-05T19:19:51.357Z,98148.94
2022-10-05T19:22:06.398Z,98147.13
2022-10-05T19:24:37.594Z,98145.63
2022-10-05T19:27:04.522Z,98152.94
2022-10-05T19:29:27.254Z,98156.09
2022-10-05T19:31:43.013Z,98155.09
2022-10-05T19:34:13.391Z,98163.06
2022-10-05T19:36:37.245Z,98166.09
2022-10-05T19:38:58.352Z,98173.63
2022-10-05T19:41:17.776Z,98171.94
2022-10-05T19:43:39.155Z,98175.19
2022-10-05T19:45:58.925Z,98184.31
2022-10-05T19:48:19.167Z,98187.75
2022-10-05T19:50:32.833Z,98187.34
2022-10-05T19:52:49.962Z,98193.81
2022-10-05T19:55:09.988Z,98202.00
2022-10-05T19:57:21.499Z,98197.56
2022-10-05T19:59:31.835Z,98209.47
2022-10-05T20:01:40.741Z,98219.78
2022-10-05T20:03:51.270Z,98222.88
2022-10-05T20:06:01.344Z,98223.25
2022-10-05T20:08:12.042Z,98217.31
2022-10-05T20:10:31.415Z,98224.50
2022-10-05T20:12:57.608Z,98235.31
2022-10-05T20:15:23.094Z,98233.28
2022-10-05T20:17:44.173Z,98240.50
2022-10-05T20:20:04.387Z,98243.50
2022-10-05T20:22:38.090Z,98241.88
2022-10-05T20:24:53.665Z,98246.41
2022-10-05T20:27:05.695Z,98247.25
2022-10-05T20:29:16.286Z,98256.72
2022-10-05T20:31:24.390Z,98265.00
2022-10-05T20:33:34.405Z,98258.94
2022-10-05T20:35:42.703Z,98266.75
2022-10-05T20:37:50.787Z,98269.41
2022-10-05T20:39:58.785Z,98271.84
2022-10-05T20:42:07.423Z,98282.25
2022-10-05T20:44:18.035Z,98266.00
2022-10-05T20:46:25.885Z,98275.97
2022-10-05T20:48:34.653Z,98275.59
2022-10-05T20:50:43.882Z,98275.72
2022-10-05T20:52:51.708Z,98284.94
2022-10-05T20:55:00.433Z,98284.38
2022-10-05T20:57:09.246Z,98288.66
2022-10-05T20:59:19.873Z,98289.09
2022-10-05T21:01:31.953Z,98294.25
2022-10-05T21:03:42.083Z,98294.25
2022-10-05T21:05:50.124Z,98303.47
2022-10-05T21:07:58.326Z,98298.97
2022-10-05T21:10:06.756Z,98299.81
2022-10-05T21:12:16.241Z,98302.81
2022-10-05T21:14:30.611Z,98313.31
2022-10-05T21:16:40.869Z,98318.28
2022-10-05T21:18:50.202Z,98319.25
2022-10-05T21:21:02.045Z,98326.88
2022-10-05T21:23:12.257Z,98322.16
2022-10-05T21:25:20.392Z,98323.78
2022-10-05T21:27:28.463Z,98328.28
2022-10-05T21:29:41.331Z,98325.59
2022-10-05T21:31:49.181Z,98326.91
2022-10-05T21:33:57.263Z,98332.47
2022-10-05T21:36:05.532Z,98332.25
2022-10-05T21:38:13.737Z,98330.34
2022-10-05T21:40:21.876Z,98339.88
2022-10-05T21:42:29.876Z,98340.97
2022-10-05T21:44:40.992Z,98340.22
2022-10-05T21:46:50.284Z,98348.88
2022-10-05T21:48:58.503Z,98346.31
2022-10-05T21:51:07.829Z,98352.66
2022-10-05T21:53:17.938Z,98354.13
2022-10-05T21:55:25.860Z,98358.94
2022-10-05T21:57:33.978Z,98356.94
2022-10-05T21:59:45.843Z,98357.78
2022-10-05T22:01:54.135Z,98356.50
2022-10-05T22:04:02.113Z,98352.22
2022-10-05T22:06:10.439Z,98358.63
2022-10-05T22:08:27.303Z,98354.66
2022-10-05T22:10:35.333Z,98361.50
2022-10-05T22:12:43.619Z,98366.22
2022-10-05T22:14:54.842Z,98368.03
2022-10-05T22:17:06.227Z,98370.28
2022-10-05T22:19:18.658Z,98373.91
2022-10-05T22:21:26.910Z,98374.00
2022-10-05T22:23:36.403Z,98369.03
2022-10-05T22:25:45.240Z,98378.03
2022-10-05T22:27:53.516Z,98382.16
2022-10-05T22:30:04.144Z,98377.88
2022-10-05T22:32:12.179Z,98372.00
2022-10-05T22:34:21.499Z,98371.69
2022-10-05T22:36:29.975Z,98381.84
2022-10-05T22:38:38.035Z,98390.88
2022-10-05T22:40:45.778Z,98386.41
2022-10-05T22:42:56.287Z,98385.78
2022-10-05T22:45:07.890Z,98383.09
2022-10-05T22:47:15.685Z,98383.09
2022-10-05T22:49:24.302Z,98391.00
2022-10-05T22:51:32.458Z,98389.72
2022-10-05T22:53:40.401Z,98386.94
2022-10-05T22:55:48.407Z,98383.53
2022-10-05T22:57:56.235Z,98386.31
2022-10-05T23:00:07.177Z,98389.19
2022-10-05T23:02:15.085Z,98384.19
2022-10-05T23:04:23.103Z,98394.00
2022-10-05T23:06:30.933Z,98391.56
2022-10-05T23:08:39.988Z,98391.13
2022-10-05T23:10:47.976Z,98396.03
2022-10-05T23:13:01.175Z,98391.56
2022-10-05T23:15:13.666Z,98400.97
2022-10-05T23:17:22.869Z,98398.75
2022-10-05T23:19:31.116Z,98411.09
2022-10-05T23:21:39.427Z,98402.91
2022-10-05T23:23:51.204Z,98405.09
2022-10-05T23:26:02.697Z,98405.22
2022-10-05T23:28:10.795Z,98407.31
2022-10-05T23:30:21.605Z,98408.47
2022-10-05T23:32:30.049Z,98406.03
2022-10-05T23:34:37.896Z,98405.78
2022-10-05T23:36:45.944Z,98405.59
2022-10-05T23:38:54.359Z,98409.44
2022-10-05T23:41:02.798Z,98410.94
2022-10-05T23:43:10.922Z,98413.81
2022-10-05T23:45:21.694Z,98417.00
2022-10-05T23:47:29.715Z,98420.72
2022-10-05T23:49:37.463Z,98418.28
2022-10-05T23:51:45.430Z,98419.63
2022-10-05T23:53:53.202Z,98431.28
2022-10-05T23:56:01.028Z,98430.53
2022-10-05T23:58:09.141Z,98438.31
